createdAt,value
2018-09-03T00:02:21.853Z,12.33
2018-09-03T00:04:50.629Z,11.93
2018-09-03T00:07:20.009Z,13.00
2018-09-03T00:09:50.283Z,13.37
2018-09-03T00:12:19.379Z,12.30
2018-09-03T00:14:48.135Z,12.73
2018-09-03T00:17:17.544Z,10.87
2018-09-03T00:19:46.591Z,11.20
2018-09-03T00:22:15.654Z,13.07
2018-09-03T00:24:45.309Z,11.13
2018-09-03T00:27:14.437Z,12.30
2018-09-03T00:29:43.169Z,11.70
2018-09-03T00:32:17.019Z,13.27
2018-09-03T00:34:50.893Z,10.80
2018-09-03T00:38:23.199Z,12.80
2018-09-03T00:40:57.222Z,12.37
2018-09-03T00:43:31.180Z,12.67
2018-09-03T00:46:05.211Z,12.40
2018-09-03T00:48:34.591Z,14.77
2018-09-03T00:51:03.364Z,13.47
2018-09-03T00:53:32.345Z,12.90
2018-09-03T00:56:01.138Z,12.33
2018-09-03T00:58:30.194Z,12.00
2018-09-03T01:00:59.327Z,12.30
2018-09-03T01:03:28.102Z,12.50
2018-09-03T01:05:56.874Z,13.37
2018-09-03T01:08:25.890Z,13.57
2018-09-03T01:10:54.882Z,12.80
2018-09-03T01:13:23.641Z,13.23
2018-09-03T01:15:52.657Z,12.73
2018-09-03T01:18:21.402Z,12.30
2018-09-03T01:20:50.155Z,12.90
2018-09-03T01:23:18.993Z,12.93
2018-09-03T01:25:48.808Z,14.00
2018-09-03T01:28:17.886Z,14.33
2018-09-03T01:30:47.045Z,13.33
2018-09-03T01:33:16.115Z,13.23
2018-09-03T01:35:44.900Z,13.10
2018-09-03T01:38:14.097Z,14.07
2018-09-03T01:40:43.205Z,12.27
2018-09-03T01:43:12.221Z,12.23
2018-09-03T01:45:41.434Z,12.30
2018-09-03T01:48:11.493Z,12.00
2018-09-03T01:50:40.943Z,12.70
2018-09-03T01:53:09.987Z,11.67
2018-09-03T01:55:39.331Z,12.33
2018-09-03T01:58:08.429Z,12.67
2018-09-03T02:00:37.385Z,11.87
2018-09-03T02:03:06.183Z,12.63
2018-09-03T02:05:35.207Z,11.17
2018-09-03T02:08:04.392Z,12.40
2018-09-03T02:10:33.163Z,12.20
2018-09-03T02:13:02.281Z,13.73
2018-09-03T02:15:31.425Z,12.00
2018-09-03T02:18:00.402Z,11.90
2018-09-03T02:20:29.561Z,12.17
2018-09-03T02:22:58.790Z,11.53
2018-09-03T02:25:27.591Z,12.43
2018-09-03T02:27:56.378Z,11.77
2018-09-03T02:30:25.271Z,12.47
2018-09-03T02:32:54.529Z,11.47
2018-09-03T02:35:23.252Z,12.40
2018-09-03T02:37:52.239Z,11.17
2018-09-03T02:40:21.635Z,12.00
2018-09-03T02:42:50.999Z,13.43
2018-09-03T02:45:19.764Z,13.83
2018-09-03T02:47:48.594Z,12.43
2018-09-03T02:50:17.881Z,11.63
2018-09-03T02:52:46.611Z,12.27
2018-09-03T02:55:15.431Z,13.20
2018-09-03T02:57:44.928Z,11.33
2018-09-03T03:00:13.708Z,12.43
2018-09-03T03:02:42.441Z,11.57
2018-09-03T03:05:11.423Z,11.67
2018-09-03T03:07:40.388Z,13.40
2018-09-03T03:10:09.130Z,14.20
2018-09-03T03:12:38.130Z,11.60
2018-09-03T03:15:06.888Z,11.97
2018-09-03T03:17:35.691Z,11.47
2018-09-03T03:20:04.429Z,11.70
2018-09-03T03:22:33.817Z,13.17
2018-09-03T03:25:02.958Z,11.43
2018-09-03T03:27:31.752Z,11.83
2018-09-03T03:30:00.767Z,12.70
2018-09-03T03:32:29.794Z,13.63
2018-09-03T03:34:58.937Z,12.30
2018-09-03T03:37:28.270Z,13.00
2018-09-03T03:39:57.045Z,13.17
2018-09-03T03:42:26.236Z,12.90
2018-09-03T03:44:55.279Z,12.27
2018-09-03T03:47:24.021Z,11.83
2018-09-03T03:49:53.112Z,12.70
2018-09-03T03:52:22.241Z,13.23
2018-09-03T03:54:51.427Z,12.40
2018-09-03T03:57:20.835Z,13.80
2018-09-03T03:59:50.131Z,14.60
2018-09-03T04:02:19.160Z,12.23
2018-09-03T04:04:48.234Z,13.97
2018-09-03T04:07:17.395Z,14.10
2018-09-03T04:09:46.182Z,12.47
2018-09-03T04:12:14.966Z,13.60
2018-09-03T04:14:43.819Z,14.23
2018-09-03T04:17:12.861Z,12.53
2018-09-03T04:19:41.732Z,13.80
2018-09-03T04:22:10.498Z,13.53
2018-09-03T04:24:39.579Z,14.27
2018-09-03T04:27:08.904Z,14.00
2018-09-03T04:29:37.644Z,15.50
2018-09-03T04:32:06.718Z,14.23
2018-09-03T04:34:35.472Z,15.53
2018-09-03T04:37:04.330Z,14.00
2018-09-03T04:39:33.436Z,15.83
2018-09-03T04:42:02.576Z,16.57
2018-09-03T04:44:32.064Z,15.97
2018-09-03T04:47:01.126Z,14.53
2018-09-03T04:49:30.627Z,15.47
2018-09-03T04:51:59.455Z,14.40
2018-09-03T04:54:28.328Z,16.13
2018-09-03T04:56:57.397Z,15.53
2018-09-03T04:59:26.162Z,14.70
2018-09-03T05:01:54.922Z,13.53
2018-09-03T05:04:23.642Z,13.23
2018-09-03T05:06:52.440Z,14.77
2018-09-03T05:09:21.476Z,14.80
2018-09-03T05:11:51.047Z,13.60
2018-09-03T05:14:20.131Z,16.03
2018-09-03T05:16:49.149Z,15.17
2018-09-03T05:19:18.294Z,15.80
2018-09-03T05:21:47.039Z,15.30
2018-09-03T05:24:16.446Z,14.87
2018-09-03T05:26:45.622Z,14.70
2018-09-03T05:29:14.544Z,16.73
2018-09-03T05:31:43.725Z,15.90
2018-09-03T05:34:12.510Z,17.90
2018-09-03T05:36:41.518Z,14.17
2018-09-03T05:39:12.007Z,16.57
2018-09-03T05:41:42.520Z,17.13
2018-09-03T05:44:11.558Z,15.00
2018-09-03T05:46:40.771Z,16.70
2018-09-03T05:49:09.961Z,16.70
2018-09-03T05:51:39.052Z,18.17
2018-09-03T05:54:08.143Z,16.37
2018-09-03T05:56:36.967Z,16.50
2018-09-03T05:59:06.125Z,16.87
2018-09-03T06:01:34.933Z,16.40
2018-09-03T06:04:04.436Z,18.20
2018-09-03T06:06:33.184Z,18.03
2018-09-03T06:09:10.456Z,17.93
2018-09-03T06:11:40.038Z,18.77
2018-09-03T06:14:09.274Z,18.50
2018-09-03T06:16:38.373Z,18.87
2018-09-03T06:19:07.124Z,18.73
2018-09-03T06:21:36.100Z,18.80
2018-09-03T06:24:04.850Z,19.97
2018-09-03T06:26:33.615Z,17.17
2018-09-03T06:29:02.444Z,18.13
2018-09-03T06:31:31.212Z,17.87
2018-09-03T06:33:59.971Z,20.13
2018-09-03T06:36:28.793Z,20.00
2018-09-03T06:38:57.750Z,17.10
2018-09-03T06:41:26.526Z,17.33
2018-09-03T06:43:55.574Z,17.80
2018-09-03T06:46:24.558Z,15.87
2018-09-03T06:48:53.741Z,19.90
2018-09-03T06:51:22.826Z,17.17
2018-09-03T06:53:52.547Z,18.30
2018-09-03T06:56:21.278Z,17.97
2018-09-03T06:58:50.407Z,17.90
2018-09-03T07:01:19.131Z,19.53
2018-09-03T07:03:48.161Z,17.93
2018-09-03T07:06:17.181Z,17.97
2018-09-03T07:08:46.248Z,18.87
2018-09-03T07:11:14.969Z,18.00
2018-09-03T07:13:43.756Z,18.97
2018-09-03T07:16:12.834Z,18.50
2018-09-03T07:18:41.595Z,18.53
2018-09-03T07:21:10.768Z,16.70
2018-09-03T07:23:39.769Z,19.13
2018-09-03T07:26:08.783Z,18.57
2018-09-03T07:28:37.874Z,19.00
2018-09-03T07:31:06.586Z,17.80
2018-09-03T07:33:35.320Z,18.70
2018-09-03T07:36:04.376Z,19.20
2018-09-03T07:38:33.151Z,19.50
2018-09-03T07:41:02.116Z,17.90
2018-09-03T07:43:31.107Z,17.80
2018-09-03T07:46:00.399Z,16.77
2018-09-03T07:48:29.146Z,17.10
2018-09-03T07:50:57.973Z,16.33
2018-09-03T07:53:26.911Z,15.70
2018-09-03T07:55:55.690Z,15.40
2018-09-03T07:58:24.455Z,15.20
2018-09-03T08:00:53.423Z,16.33
2018-09-03T08:03:22.181Z,15.17
2018-09-03T08:05:51.924Z,16.10
2018-09-03T08:08:23.839Z,15.83
2018-09-03T08:10:52.686Z,14.93
2018-09-03T08:13:26.616Z,16.43
2018-09-03T08:16:01.525Z,15.53
2018-09-03T08:18:30.626Z,15.87
2018-09-03T08:20:59.425Z,14.90
2018-09-03T08:23:28.389Z,15.40
2018-09-03T08:25:57.793Z,15.80
2018-09-03T08:28:27.059Z,14.80
2018-09-03T08:30:56.171Z,15.73
2018-09-03T08:33:24.886Z,15.60
2018-09-03T08:35:53.642Z,15.73
2018-09-03T08:38:23.034Z,13.07
2018-09-03T08:40:52.078Z,15.50
2018-09-03T08:43:21.551Z,14.30
2018-09-03T08:45:50.323Z,13.43
2018-09-03T08:48:19.074Z,13.07
2018-09-03T08:50:47.775Z,12.30
2018-09-03T08:53:17.284Z,12.37
2018-09-03T08:55:46.117Z,14.60
2018-09-03T08:58:15.177Z,13.63
2018-09-03T09:00:44.153Z,13.60
2018-09-03T09:03:18.483Z,13.10
2018-09-03T09:05:47.699Z,12.53
2018-09-03T09:08:16.397Z,12.67
2018-09-03T09:10:45.155Z,12.37
2018-09-03T09:13:13.937Z,10.97
2018-09-03T09:15:42.916Z,10.97
2018-09-03T09:18:12.174Z,12.17
2018-09-03T09:20:40.951Z,11.07
2018-09-03T09:23:09.691Z,12.20
2018-09-03T09:25:38.784Z,11.20
2018-09-03T09:28:07.836Z,11.70
2018-09-03T09:30:36.917Z,10.80
2018-09-03T09:33:05.991Z,11.80
2018-09-03T09:35:34.850Z,11.20
2018-09-03T09:38:03.875Z,9.57
2018-09-03T09:40:33.052Z,10.80
2018-09-03T09:43:01.894Z,11.10
2018-09-03T09:45:30.857Z,10.57
2018-09-03T09:47:59.594Z,10.20
2018-09-03T09:50:28.337Z,10.37
2018-09-03T09:52:57.149Z,10.60
2018-09-03T09:55:26.352Z,9.17
2018-09-03T09:57:55.079Z,9.77
2018-09-03T10:00:29.057Z,10.10
2018-09-03T10:02:58.425Z,9.27
2018-09-03T10:05:27.761Z,10.50
2018-09-03T10:07:56.575Z,10.30
2018-09-03T10:10:25.816Z,9.70
2018-09-03T10:12:54.615Z,8.93
2018-09-03T10:15:23.497Z,8.70
2018-09-03T10:17:52.496Z,9.10
2018-09-03T10:20:21.280Z,9.63
2018-09-03T10:22:50.361Z,8.53
2018-09-03T10:25:19.391Z,9.70
2018-09-03T10:27:48.201Z,8.97
2018-09-03T10:30:16.937Z,9.80
2018-09-03T10:32:46.443Z,8.93
2018-09-03T10:35:15.168Z,10.43
2018-09-03T10:37:43.857Z,9.20
2018-09-03T10:40:12.947Z,9.00
2018-09-03T10:42:42.113Z,8.80
2018-09-03T10:45:10.870Z,9.20
2018-09-03T10:47:39.939Z,10.10
2018-09-03T10:50:08.914Z,9.80
2018-09-03T10:52:38.003Z,10.13
2018-09-03T10:55:07.466Z,9.30
2018-09-03T10:57:36.609Z,10.20
2018-09-03T11:00:06.020Z,9.37
2018-09-03T11:02:35.045Z,8.80
2018-09-03T11:05:04.106Z,7.63
2018-09-03T11:07:32.892Z,9.50
2018-09-03T11:10:01.681Z,10.40
2018-09-03T11:12:30.735Z,10.07
2018-09-03T11:14:59.950Z,10.57
2018-09-03T11:17:28.720Z,9.87
2018-09-03T11:20:00.105Z,10.80
2018-09-03T11:22:29.478Z,10.00
2018-09-03T11:24:59.443Z,10.30
2018-09-03T11:27:28.978Z,9.60
2018-09-03T11:29:58.237Z,10.40
2018-09-03T11:32:27.548Z,10.80
2018-09-03T11:34:56.375Z,9.60
2018-09-03T11:37:25.489Z,9.53
2018-09-03T11:39:55.242Z,9.90
2018-09-03T11:42:24.138Z,11.20
2018-09-03T11:44:52.847Z,9.80
2018-09-03T11:47:21.583Z,10.43
2018-09-03T11:49:50.646Z,9.70
2018-09-03T11:52:19.371Z,10.67
2018-09-03T11:54:48.124Z,10.10
2018-09-03T11:57:17.489Z,10.47
2018-09-03T11:59:46.578Z,10.50
2018-09-03T12:02:15.283Z,9.27
2018-09-03T12:04:44.082Z,11.77
2018-09-03T12:07:13.054Z,10.47
2018-09-03T12:09:42.471Z,10.60
2018-09-03T12:12:11.258Z,11.93
2018-09-03T12:14:42.431Z,11.50
2018-09-03T12:17:11.264Z,11.70
2018-09-03T12:19:40.822Z,12.23
2018-09-03T12:22:10.094Z,11.47
2018-09-03T12:24:38.835Z,12.10
2018-09-03T12:27:07.764Z,12.87
2018-09-03T12:29:36.821Z,11.70
2018-09-03T12:32:05.578Z,11.97
2018-09-03T12:34:34.587Z,12.00
2018-09-03T12:37:03.482Z,11.27
2018-09-03T12:39:32.172Z,13.73
2018-09-03T12:42:01.162Z,12.67
2018-09-03T12:44:30.897Z,11.33
2018-09-03T12:47:00.314Z,11.93
2018-09-03T12:49:29.094Z,11.30
2018-09-03T12:51:58.231Z,12.23
2018-09-03T12:54:27.344Z,12.57
2018-09-03T12:56:56.108Z,11.60
2018-09-03T12:59:24.899Z,13.60
2018-09-03T13:01:53.691Z,11.87
2018-09-03T13:04:22.440Z,12.87
2018-09-03T13:06:58.094Z,12.97
2018-09-03T13:09:27.073Z,14.10
2018-09-03T13:11:55.848Z,12.50
2018-09-03T13:14:24.588Z,12.90
2018-09-03T13:16:53.598Z,12.70
2018-09-03T13:19:22.921Z,12.90
2018-09-03T13:21:52.466Z,12.90
2018-09-03T13:24:21.556Z,11.30
2018-09-03T13:26:50.335Z,12.67
2018-09-03T13:29:19.219Z,12.63
2018-09-03T13:31:48.035Z,12.00
2018-09-03T13:34:17.134Z,13.30
2018-09-03T13:36:45.902Z,13.30
2018-09-03T13:39:15.766Z,13.33
2018-09-03T13:41:44.549Z,12.47
2018-09-03T13:44:13.273Z,12.33
2018-09-03T13:46:42.075Z,12.70
2018-09-03T13:49:10.819Z,14.10
2018-09-03T13:51:40.030Z,13.10
2018-09-03T13:54:08.730Z,12.20
2018-09-03T13:56:37.554Z,12.87
2018-09-03T13:59:06.305Z,12.27
2018-09-03T14:01:35.103Z,13.20
2018-09-03T14:04:04.186Z,13.70
2018-09-03T14:06:33.789Z,12.80
2018-09-03T14:09:03.235Z,13.70
2018-09-03T14:11:32.006Z,12.67
2018-09-03T14:14:00.787Z,10.60
2018-09-03T14:16:30.259Z,14.83
2018-09-03T14:18:59.070Z,14.70
2018-09-03T14:21:28.535Z,12.33
2018-09-03T14:23:57.475Z,12.53
2018-09-03T14:26:26.666Z,13.30
2018-09-03T14:28:55.418Z,13.83
2018-09-03T14:31:24.811Z,12.90
2018-09-03T14:33:53.838Z,12.70
2018-09-03T14:36:23.215Z,12.80
2018-09-03T14:38:55.100Z,12.23
2018-09-03T14:41:23.824Z,12.40
2018-09-03T14:43:52.816Z,12.90
2018-09-03T14:46:22.259Z,13.57
2018-09-03T14:48:51.035Z,14.47
2018-09-03T14:51:20.130Z,12.90
2018-09-03T14:53:49.083Z,11.90
2018-09-03T14:56:18.136Z,12.50
2018-09-03T14:58:46.862Z,12.63
2018-09-03T15:01:16.063Z,12.67
2018-09-03T15:03:44.840Z,12.77
2018-09-03T15:06:13.583Z,13.50
2018-09-03T15:08:42.630Z,11.77
2018-09-03T15:11:11.339Z,11.90
2018-09-03T15:13:40.099Z,13.47
2018-09-03T15:16:08.866Z,13.83
2018-09-03T15:18:37.985Z,14.13
2018-09-03T15:21:06.715Z,13.57
2018-09-03T15:23:35.450Z,12.70
2018-09-03T15:26:04.576Z,14.07
2018-09-03T15:28:33.278Z,13.07
2018-09-03T15:31:02.422Z,12.37
2018-09-03T15:33:31.238Z,12.80
2018-09-03T15:35:59.993Z,13.47
2018-09-03T15:38:28.765Z,12.70
2018-09-03T15:40:58.164Z,11.90
2018-09-03T15:43:27.567Z,15.13
2018-09-03T15:45:56.246Z,12.77
2018-09-03T15:48:25.630Z,13.37
2018-09-03T15:50:54.698Z,13.57
2018-09-03T15:53:24.295Z,14.40
2018-09-03T15:55:53.102Z,12.80
2018-09-03T15:58:21.832Z,14.90
2018-09-03T16:00:50.973Z,13.07
2018-09-03T16:03:19.972Z,13.37
2018-09-03T16:05:49.022Z,12.67
2018-09-03T16:08:18.105Z,13.53
2018-09-03T16:10:46.839Z,14.60
2018-09-03T16:13:15.897Z,14.20
2018-09-03T16:15:44.993Z,13.57
2018-09-03T16:18:14.317Z,13.67
2018-09-03T16:20:43.416Z,13.83
2018-09-03T16:23:12.152Z,14.80
2018-09-03T16:25:40.988Z,14.87
2018-09-03T16:28:10.036Z,14.20
2018-09-03T16:30:39.812Z,14.23
2018-09-03T16:33:08.634Z,16.17
2018-09-03T16:35:37.355Z,14.20
2018-09-03T16:38:06.816Z,14.20
2018-09-03T16:40:35.893Z,13.30
2018-09-03T16:43:04.914Z,15.43
2018-09-03T16:45:33.696Z,13.67
2018-09-03T16:48:02.910Z,13.30
2018-09-03T16:50:31.658Z,13.73
2018-09-03T16:53:00.408Z,13.10
2018-09-03T16:55:29.142Z,12.87
2018-09-03T16:57:58.503Z,12.10
2018-09-03T17:00:27.785Z,13.23
2018-09-03T17:02:56.494Z,13.50
2018-09-03T17:05:25.499Z,15.87
2018-09-03T17:07:54.330Z,30.97
2018-09-03T17:10:23.542Z,21.10
2018-09-03T17:12:52.342Z,13.60
2018-09-03T17:15:21.323Z,13.20
2018-09-03T17:17:50.627Z,13.87
2018-09-03T17:20:19.550Z,14.17
2018-09-03T17:22:48.259Z,13.50
2018-09-03T17:25:16.987Z,12.27
2018-09-03T17:27:45.808Z,14.67
2018-09-03T17:30:15.089Z,15.30
2018-09-03T17:32:44.173Z,13.90
2018-09-03T17:35:13.510Z,13.23
2018-09-03T17:37:42.304Z,12.63
2018-09-03T17:40:11.334Z,13.50
2018-09-03T17:42:40.140Z,13.97
2018-09-03T17:45:10.102Z,13.03
2018-09-03T17:47:39.847Z,13.30
2018-09-03T17:50:09.389Z,14.17
2018-09-03T17:52:38.536Z,13.40
2018-09-03T17:55:08.134Z,13.00
2018-09-03T17:57:37.324Z,12.70
2018-09-03T18:00:06.697Z,14.20
2018-09-03T18:02:36.128Z,14.03
2018-09-03T18:05:05.240Z,14.70
2018-09-03T18:07:34.529Z,13.40
2018-09-03T18:10:03.919Z,16.40
2018-09-03T18:12:32.947Z,14.90
2018-09-03T18:15:01.988Z,14.53
2018-09-03T18:17:30.774Z,15.20
2018-09-03T18:19:59.903Z,14.80
2018-09-03T18:22:28.627Z,15.93
2018-09-03T18:24:57.362Z,14.47
2018-09-03T18:27:26.917Z,15.33
2018-09-03T18:29:55.702Z,15.90
2018-09-03T18:32:24.469Z,15.17
2018-09-03T18:34:53.189Z,15.70
2018-09-03T18:37:22.336Z,17.27
2018-09-03T18:39:51.072Z,17.53
2018-09-03T18:42:20.041Z,18.33
2018-09-03T18:44:49.387Z,18.13
2018-09-03T18:47:18.470Z,17.30
2018-09-03T18:49:47.675Z,18.03
2018-09-03T18:52:16.523Z,18.23
2018-09-03T18:54:45.508Z,18.00
2018-09-03T18:57:14.239Z,19.90
2018-09-03T18:59:43.590Z,18.90
2018-09-03T19:02:12.366Z,17.07
2018-09-03T19:04:41.115Z,18.60
2018-09-03T19:07:10.129Z,17.53
2018-09-03T19:09:38.904Z,19.50
2018-09-03T19:12:08.298Z,17.20
2018-09-03T19:14:37.017Z,17.07
2018-09-03T19:17:05.928Z,17.27
2018-09-03T19:19:34.967Z,19.07
2018-09-03T19:22:03.853Z,18.03
2018-09-03T19:24:32.942Z,20.13
2018-09-03T19:27:01.790Z,21.13
2018-09-03T19:29:30.584Z,19.10
2018-09-03T19:31:59.595Z,18.97
2018-09-03T19:34:29.243Z,20.90
2018-09-03T19:36:57.983Z,20.70
2018-09-03T19:39:27.186Z,20.27
2018-09-03T19:41:55.938Z,20.93
2018-09-03T19:44:25.035Z,21.40
2018-09-03T19:46:54.366Z,23.03
2018-09-03T19:49:23.111Z,22.90
2018-09-03T19:51:51.903Z,22.93
2018-09-03T19:54:20.681Z,22.03
2018-09-03T19:56:50.170Z,23.27
2018-09-03T19:59:18.967Z,22.40
2018-09-03T20:01:47.703Z,23.07
2018-09-03T20:04:16.468Z,20.40
2018-09-03T20:06:45.837Z,22.60
2018-09-03T20:09:14.665Z,22.23
2018-09-03T20:11:44.361Z,22.23
2018-09-03T20:14:16.284Z,22.07
2018-09-03T20:16:45.197Z,21.77
2018-09-03T20:19:13.917Z,21.83
2018-09-03T20:21:42.968Z,22.80
2018-09-03T20:24:12.042Z,22.90
2018-09-03T20:26:41.150Z,22.80
2018-09-03T20:29:10.369Z,21.47
2018-09-03T20:31:39.393Z,23.83
2018-09-03T20:34:08.164Z,23.30
2018-09-03T20:36:37.628Z,23.20
2018-09-03T20:39:07.293Z,22.97
2018-09-03T20:41:36.047Z,24.10
2018-09-03T20:44:04.900Z,22.40
2018-09-03T20:46:33.736Z,25.27
2018-09-03T20:49:02.734Z,23.47
2018-09-03T20:51:31.817Z,23.93
2018-09-03T20:54:01.107Z,24.40
2018-09-03T20:56:29.907Z,24.07
2018-09-03T20:58:58.762Z,22.50
2018-09-03T21:01:28.024Z,22.30
2018-09-03T21:03:57.224Z,24.07
2018-09-03T21:06:25.976Z,24.10
2018-09-03T21:08:54.763Z,25.00
2018-09-03T21:11:29.825Z,22.37
2018-09-03T21:13:58.953Z,22.80
2018-09-03T21:16:27.738Z,24.20
2018-09-03T21:18:56.530Z,23.77
2018-09-03T21:21:25.857Z,22.20
2018-09-03T21:23:54.615Z,22.60
2018-09-03T21:26:23.415Z,23.80
2018-09-03T21:28:52.619Z,24.87
2018-09-03T21:31:21.797Z,23.77
2018-09-03T21:33:51.478Z,23.97
2018-09-03T21:36:20.261Z,24.47
2018-09-03T21:38:55.518Z,24.07
2018-09-03T21:41:24.945Z,24.13
2018-09-03T21:43:54.204Z,23.80
2018-09-03T21:46:23.417Z,23.67
2018-09-03T21:48:52.172Z,23.00
2018-09-03T21:51:21.002Z,25.23
2018-09-03T21:53:50.242Z,23.13
2018-09-03T21:56:18.999Z,22.40
2018-09-03T21:58:48.045Z,23.50
2018-09-03T22:01:17.049Z,24.00
2018-09-03T22:03:46.387Z,25.13
2018-09-03T22:06:15.182Z,24.70
2018-09-03T22:08:44.358Z,26.17
2018-09-03T22:11:13.090Z,24.37
2018-09-03T22:13:41.886Z,23.17
2018-09-03T22:16:10.661Z,25.33
2018-09-03T22:18:40.400Z,24.53
2018-09-03T22:21:09.582Z,24.27
2018-09-03T22:23:38.783Z,24.10
2018-09-03T22:26:08.280Z,24.97
2018-09-03T22:28:37.925Z,22.90
2018-09-03T22:31:07.342Z,24.07
2018-09-03T22:33:36.110Z,25.63
2018-09-03T22:36:04.974Z,23.07
2018-09-03T22:38:40.348Z,22.77
2018-09-03T22:41:09.147Z,24.80
2018-09-03T22:43:38.831Z,25.57
2018-09-03T22:46:08.877Z,24.70
2018-09-03T22:48:37.630Z,25.10
2018-09-03T22:51:06.595Z,24.10
2018-09-03T22:53:35.418Z,26.07
2018-09-03T22:56:04.155Z,22.60
2018-09-03T22:58:32.871Z,23.03
2018-09-03T23:01:02.710Z,22.70
2018-09-03T23:03:32.728Z,23.00
2018-09-03T23:06:02.369Z,22.43
2018-09-03T23:08:32.221Z,22.20
2018-09-03T23:11:02.020Z,23.63
2018-09-03T23:13:32.467Z,23.40
2018-09-03T23:16:02.799Z,23.87
2018-09-03T23:18:31.924Z,23.07
2018-09-03T23:21:00.706Z,23.83
2018-09-03T23:23:29.858Z,21.67
2018-09-03T23:25:58.991Z,22.63
2018-09-03T23:28:28.325Z,21.93
2018-09-03T23:30:57.959Z,21.90
2018-09-03T23:33:26.742Z,21.77
2018-09-03T23:35:55.588Z,20.77
2018-09-03T23:38:24.326Z,20.63
2018-09-03T23:40:53.081Z,21.63
2018-09-03T23:43:22.111Z,21.00
2018-09-03T23:45:51.137Z,20.20
2018-09-03T23:48:20.460Z,21.83
2018-09-03T23:50:49.589Z,21.97
2018-09-03T23:53:19.035Z,20.87
2018-09-03T23:55:48.142Z,21.67
2018-09-03T23:58:17.198Z,21.20
